Anamur, Turkey
Current Conditions -  °F | °C
As of 3:50 PM on Friday 31 Oct 2014 (Local Time) from LCEN Reporting Station
Scattered Clouds Scattered Clouds  
Wind Chill: 22°   Ceiling: Unl
Heat Index: 22°   Visibility: 6mi
Dew Point: 13°   Wind: 8mph
Humidity: 57%   Direction: 360°N
Pressure: 29.83"   Gusts: NA
Location:  36.08°N, 32.84°E
Report Text: LCEN 311250Z 36007KT 9999 FEW025CB SCT030 22/13 Q1010 NOSIG
Loading
Personal Weather Stations






























Interactive Weather Map
Tropical Storm Tracking
New forecast layout! Learn more

10-Day Weather Forecast

Advertisements
Track Severe Weather on mobile